createdAt,value
2023-04-08T00:02:25.395Z,102044.41
2023-04-08T00:05:28.367Z,102045.28
2023-04-08T00:08:31.681Z,102047.94
2023-04-08T00:11:35.933Z,102046.19
2023-04-08T00:14:38.832Z,102041.75
2023-04-08T00:17:43.329Z,102036.47
2023-04-08T00:20:46.488Z,102040.88
2023-04-08T00:23:49.206Z,102052.34
2023-04-08T00:26:53.316Z,102055.88
2023-04-08T00:29:56.386Z,102049.63
2023-04-08T00:32:59.274Z,102048.72
2023-04-08T00:36:02.661Z,102050.50
2023-04-08T00:39:06.863Z,102059.44
2023-04-08T00:42:11.790Z,102053.22
2023-04-08T00:45:14.719Z,102057.66
2023-04-08T00:48:17.527Z,102057.72
2023-04-08T00:51:20.462Z,102062.16
2023-04-08T00:54:23.246Z,102065.75
2023-04-08T00:57:27.529Z,102068.41
2023-04-08T01:00:31.814Z,102074.63
2023-04-08T01:03:40.585Z,102068.41
2023-04-08T01:06:50.493Z,102073.69
2023-04-08T01:09:56.473Z,102071.03
2023-04-08T01:13:05.792Z,102073.63
2023-04-08T01:16:12.130Z,102068.31
2023-04-08T01:19:28.947Z,102064.75
2023-04-08T01:22:40.561Z,102071.91
2023-04-08T01:25:47.440Z,102065.69
2023-04-08T01:28:52.118Z,102063.94
2023-04-08T01:31:56.303Z,102076.38
2023-04-08T01:35:00.300Z,102068.41
2023-04-08T01:38:07.879Z,102068.41
2023-04-08T01:41:12.645Z,102061.31
2023-04-08T01:44:17.545Z,102063.09
2023-04-08T01:47:20.725Z,102066.63
2023-04-08T01:50:24.860Z,102076.38
2023-04-08T01:53:27.713Z,102076.38
2023-04-08T01:56:37.551Z,102086.09
2023-04-08T01:59:42.121Z,102080.72
2023-04-08T02:02:47.316Z,102080.78
2023-04-08T02:05:50.767Z,102091.41
2023-04-08T02:08:54.384Z,102089.66
2023-04-08T02:11:58.972Z,102096.75
2023-04-08T02:15:02.144Z,102095.84
2023-04-08T02:18:12.518Z,102100.34
2023-04-08T02:21:16.839Z,102100.34
2023-04-08T02:24:21.167Z,102092.34
2023-04-08T02:27:27.969Z,102095.00
2023-04-08T02:30:32.371Z,102100.34
2023-04-08T02:33:37.062Z,102097.69
2023-04-08T02:36:41.070Z,102100.34
2023-04-08T02:39:43.891Z,102102.06
2023-04-08T02:42:48.938Z,102110.00
2023-04-08T02:45:51.744Z,102117.97
2023-04-08T02:48:54.916Z,102121.53
2023-04-08T02:51:57.700Z,102118.81
2023-04-08T02:55:00.624Z,102122.41
2023-04-08T02:58:04.757Z,102125.94
2023-04-08T03:01:10.051Z,102117.97
2023-04-08T03:04:12.977Z,102127.69
2023-04-08T03:07:15.735Z,102128.56
2023-04-08T03:10:18.543Z,102120.63
2023-04-08T03:13:22.785Z,102138.31
2023-04-08T03:16:25.754Z,102135.66
2023-04-08T03:19:28.590Z,102134.78
2023-04-08T03:22:31.378Z,102131.28
2023-04-08T03:25:34.208Z,102134.78
2023-04-08T03:28:38.460Z,102134.78
2023-04-08T03:31:41.530Z,102136.59
2023-04-08T03:34:44.298Z,102128.63
2023-04-08T03:37:47.190Z,102136.59
2023-04-08T03:40:49.942Z,102137.50
2023-04-08T03:43:54.031Z,102153.47
2023-04-08T03:46:56.854Z,102151.75
2023-04-08T03:49:59.619Z,102159.72
2023-04-08T03:53:02.397Z,102156.22
2023-04-08T03:56:05.474Z,102152.66
2023-04-08T03:59:09.637Z,102153.56
2023-04-08T04:02:12.503Z,102166.03
2023-04-08T04:05:15.423Z,102152.72
2023-04-08T04:08:18.385Z,102168.69
2023-04-08T04:11:21.364Z,102165.13
2023-04-08T04:14:25.738Z,102173.13
2023-04-08T04:17:28.534Z,102174.91
2023-04-08T04:20:31.431Z,102177.56
2023-04-08T04:23:34.460Z,102174.00
2023-04-08T04:26:37.233Z,102175.78
2023-04-08T04:29:41.342Z,102183.78
2023-04-08T04:32:44.273Z,102183.78
2023-04-08T04:35:47.107Z,102190.88
2023-04-08T04:38:50.921Z,102189.09
2023-04-08T04:41:53.737Z,102199.75
2023-04-08T04:44:58.856Z,102202.38
2023-04-08T04:48:01.701Z,102197.94
2023-04-08T04:51:04.639Z,102189.97
2023-04-08T04:54:07.415Z,102195.28
2023-04-08T04:57:11.032Z,102198.81
2023-04-08T05:00:15.731Z,102197.91
2023-04-08T05:03:18.672Z,102210.31
2023-04-08T05:06:21.686Z,102218.31
2023-04-08T05:09:24.428Z,102210.31
2023-04-08T05:12:28.140Z,102225.41
2023-04-08T05:15:33.548Z,102225.41
2023-04-08T05:18:36.632Z,102229.84
2023-04-08T05:21:39.401Z,102229.88
2023-04-08T05:24:42.170Z,102228.06
2023-04-08T05:27:44.917Z,102237.81
2023-04-08T05:30:52.052Z,102238.69
2023-04-08T05:33:54.985Z,102244.03
2023-04-08T05:36:57.763Z,102240.47
2023-04-08T05:40:00.602Z,102246.69
2023-04-08T05:43:03.336Z,102238.69
2023-04-08T05:46:11.598Z,102247.56
2023-04-08T05:49:14.380Z,102250.25
2023-04-08T05:52:17.525Z,102263.53
2023-04-08T05:55:20.760Z,102263.53
2023-04-08T05:58:23.491Z,102265.31
2023-04-08T06:01:27.870Z,102271.56
2023-04-08T06:04:30.741Z,102270.66
2023-04-08T06:07:33.660Z,102281.28
2023-04-08T06:10:36.439Z,102275.97
2023-04-08T06:13:39.285Z,102272.47
2023-04-08T06:16:43.562Z,102275.97
2023-04-08T06:19:46.396Z,102276.00
2023-04-08T06:22:49.176Z,102277.78
2023-04-08T06:25:52.220Z,102284.00
2023-04-08T06:28:55.001Z,102276.00
2023-04-08T06:31:59.147Z,102285.78
2023-04-08T06:35:01.950Z,102286.66
2023-04-08T06:38:04.753Z,102284.88
2023-04-08T06:41:08.142Z,102300.84
2023-04-08T06:44:11.112Z,102296.41
2023-04-08T06:47:16.498Z,102313.25
2023-04-08T06:50:19.474Z,102309.72
2023-04-08T06:53:23.748Z,102318.59
2023-04-08T06:56:26.644Z,102321.25
2023-04-08T06:59:30.443Z,102331.00
2023-04-08T07:02:34.641Z,102325.66
2023-04-08T07:05:38.585Z,102328.34
2023-04-08T07:08:41.548Z,102336.31
2023-04-08T07:11:44.297Z,102335.44
2023-04-08T07:14:47.087Z,102336.31
2023-04-08T07:17:51.685Z,102338.97
2023-04-08T07:20:55.043Z,102341.63
2023-04-08T07:23:57.821Z,102346.97
2023-04-08T07:27:00.610Z,102351.41
2023-04-08T07:30:03.435Z,102359.38
2023-04-08T07:33:07.609Z,102359.34
2023-04-08T07:36:11.476Z,102356.69
2023-04-08T07:39:14.227Z,102355.78
2023-04-08T07:42:16.971Z,102348.69
2023-04-08T07:45:19.811Z,102359.34
2023-04-08T07:48:24.004Z,102360.22
2023-04-08T07:51:27.706Z,102363.78
2023-04-08T07:54:34.188Z,102373.56
2023-04-08T07:57:36.997Z,102374.41
2023-04-08T08:00:40.836Z,102381.56
2023-04-08T08:03:45.853Z,102376.22
2023-04-08T08:06:48.857Z,102380.66
2023-04-08T08:09:51.639Z,102387.75
2023-04-08T08:12:54.435Z,102381.56
2023-04-08T08:15:57.299Z,102386.88
2023-04-08T08:19:01.723Z,102384.22
2023-04-08T08:22:04.521Z,102383.28
2023-04-08T08:25:09.926Z,102385.06
2023-04-08T08:28:12.833Z,102391.28
2023-04-08T08:31:15.739Z,102393.03
2023-04-08T08:34:20.059Z,102395.72
2023-04-08T08:37:22.891Z,102394.81
2023-04-08T08:40:25.762Z,102402.84
2023-04-08T08:43:30.088Z,102405.50
2023-04-08T08:46:33.142Z,102408.16
2023-04-08T08:49:37.424Z,102407.28
2023-04-08T08:52:40.208Z,102408.16
2023-04-08T08:58:49.211Z,102423.25
2023-04-08T09:01:52.094Z,102418.81
2023-04-08T09:05:01.195Z,102421.47
2023-04-08T09:08:04.420Z,102421.47
2023-04-08T09:11:14.998Z,102425.91
2023-04-08T09:14:22.546Z,102432.09
2023-04-08T09:17:36.220Z,102424.13
2023-04-08T09:20:53.434Z,102427.69
2023-04-08T09:24:06.565Z,102442.75
2023-04-08T09:27:12.381Z,102443.59
2023-04-08T09:30:15.535Z,102441.81
2023-04-08T09:33:18.282Z,102445.38
2023-04-08T09:36:22.518Z,102448.88
2023-04-08T09:39:25.500Z,102444.38
2023-04-08T09:42:28.606Z,102451.47
2023-04-08T09:45:34.844Z,102449.63
2023-04-08T09:48:42.759Z,102449.56
2023-04-08T09:51:57.602Z,102451.34
2023-04-08T09:55:03.848Z,102452.16
2023-04-08T09:58:12.634Z,102448.59
2023-04-08T10:01:16.381Z,102454.78
2023-04-08T10:04:22.566Z,102456.53
2023-04-08T10:07:27.259Z,102458.28
2023-04-08T10:10:30.251Z,102457.31
2023-04-08T10:13:34.829Z,102460.84
2023-04-08T10:16:38.870Z,102454.56
2023-04-08T10:19:42.073Z,102448.34
2023-04-08T10:22:49.977Z,102451.88
2023-04-08T10:25:52.778Z,102452.75
2023-04-08T10:28:55.489Z,102450.94
2023-04-08T10:31:58.487Z,102447.44
2023-04-08T10:35:01.610Z,102448.28
2023-04-08T10:38:05.811Z,102444.75
2023-04-08T10:41:08.666Z,102446.53
2023-04-08T10:44:18.038Z,102445.63
2023-04-08T10:47:28.411Z,102444.75
2023-04-08T10:50:32.323Z,102440.38
2023-04-08T10:53:37.833Z,102443.00
2023-04-08T10:56:46.483Z,102434.13
2023-04-08T10:59:49.275Z,102437.72
2023-04-08T11:02:52.150Z,102440.38
2023-04-08T11:05:58.939Z,102440.38
2023-04-08T11:09:04.201Z,102437.72
2023-04-08T11:12:07.089Z,102435.94
2023-04-08T11:15:11.116Z,102445.72
2023-04-08T11:18:14.642Z,102440.38
2023-04-08T11:21:18.382Z,102443.94
2023-04-08T11:24:23.512Z,102433.28
2023-04-08T11:27:27.083Z,102440.38
2023-04-08T11:30:31.160Z,102438.59
2023-04-08T11:33:35.058Z,102432.41
2023-04-08T11:36:37.911Z,102441.25
2023-04-08T11:39:44.078Z,102444.84
2023-04-08T11:42:47.226Z,102438.59
2023-04-08T11:45:50.316Z,102437.72
2023-04-08T11:49:04.329Z,102430.63
2023-04-08T11:52:07.524Z,102442.16
2023-04-08T11:55:12.564Z,102435.03
2023-04-08T11:58:15.860Z,102440.38
2023-04-08T12:01:19.092Z,102436.78
2023-04-08T12:04:22.040Z,102436.78
2023-04-08T12:07:24.877Z,102434.13
2023-04-08T12:10:29.126Z,102427.91
2023-04-08T12:13:32.415Z,102425.25
2023-04-08T12:16:35.390Z,102426.09
2023-04-08T12:19:38.704Z,102426.09
2023-04-08T12:22:41.703Z,102418.97
2023-04-08T12:25:45.828Z,102422.50
2023-04-08T12:28:48.558Z,102426.03
2023-04-08T12:31:51.659Z,102427.81
2023-04-08T12:34:54.598Z,102422.50
2023-04-08T12:37:57.375Z,102422.50
2023-04-08T12:41:01.547Z,102424.31
2023-04-08T12:44:04.647Z,102427.81
2023-04-08T12:47:07.471Z,102425.19
2023-04-08T12:50:11.276Z,102419.88
2023-04-08T12:53:14.099Z,102413.66
2023-04-08T12:56:18.404Z,102419.88
2023-04-08T12:59:21.173Z,102418.13
2023-04-08T13:02:25.556Z,102408.34
2023-04-08T13:05:41.906Z,102409.28
2023-04-08T13:08:45.726Z,102402.16
2023-04-08T13:11:50.316Z,102403.06
2023-04-08T13:14:53.116Z,102391.50
2023-04-08T13:17:56.184Z,102387.97
2023-04-08T13:20:59.153Z,102394.19
2023-04-08T13:24:02.238Z,102399.50
2023-04-08T13:27:06.566Z,102399.50
2023-04-08T13:30:10.587Z,102395.97
2023-04-08T13:33:13.361Z,102398.63
2023-04-08T13:36:16.124Z,102411.03
2023-04-08T13:39:18.993Z,102402.16
2023-04-08T13:42:23.461Z,102398.63
2023-04-08T13:45:26.568Z,102392.38
2023-04-08T13:48:29.307Z,102396.78
2023-04-08T13:51:32.052Z,102392.34
2023-04-08T13:54:34.836Z,102394.13
2023-04-08T13:57:39.034Z,102396.78
2023-04-08T14:00:41.838Z,102400.34
2023-04-08T14:03:44.603Z,102401.28
2023-04-08T14:06:47.402Z,102398.63
2023-04-08T14:09:50.297Z,102395.97
2023-04-08T14:12:54.455Z,102395.97
2023-04-08T14:15:58.420Z,102387.03
2023-04-08T14:19:01.296Z,102388.84
2023-04-08T14:22:04.038Z,102387.94
2023-04-08T14:25:07.138Z,102386.16
2023-04-08T14:28:11.361Z,102388.81
2023-04-08T14:31:14.170Z,102390.53
2023-04-08T14:34:16.888Z,102395.03
2023-04-08T14:37:19.624Z,102385.22
2023-04-08T14:40:22.428Z,102395.88
2023-04-08T14:43:26.676Z,102390.53
2023-04-08T14:46:29.596Z,102387.88
2023-04-08T14:49:32.347Z,102386.06
2023-04-08T14:52:35.402Z,102382.53
2023-04-08T14:55:38.532Z,102389.59
2023-04-08T14:58:42.682Z,102383.41
2023-04-08T15:01:45.888Z,102395.81
2023-04-08T15:04:48.805Z,102391.38
2023-04-08T15:07:51.711Z,102389.59
2023-04-08T15:10:54.561Z,102395.81
2023-04-08T15:13:58.735Z,102389.59
2023-04-08T15:17:01.556Z,102386.94
2023-04-08T15:20:04.681Z,102383.41
2023-04-08T15:23:07.887Z,102383.41
2023-04-08T15:26:11.345Z,102381.66
2023-04-08T15:29:15.582Z,102388.72
2023-04-08T15:32:18.493Z,102378.06
2023-04-08T15:35:21.246Z,102394.06
2023-04-08T15:38:24.083Z,102384.25
2023-04-08T15:41:27.129Z,102394.03
2023-04-08T15:44:33.466Z,102392.22
2023-04-08T15:47:36.754Z,102397.56
2023-04-08T15:50:39.835Z,102394.88
2023-04-08T15:53:42.903Z,102394.00
2023-04-08T15:56:46.616Z,102400.22
2023-04-08T15:59:50.757Z,102415.28
2023-04-08T16:02:53.687Z,102403.81
2023-04-08T16:05:56.607Z,102406.47
2023-04-08T16:08:59.316Z,102401.16
2023-04-08T16:12:02.621Z,102405.53
2023-04-08T16:15:08.411Z,102401.16
2023-04-08T16:18:11.524Z,102402.88
2023-04-08T16:21:14.514Z,102404.66
2023-04-08T16:24:20.208Z,102405.53
2023-04-08T16:27:23.316Z,102399.38
2023-04-08T16:30:27.467Z,102404.66
2023-04-08T16:33:30.857Z,102404.66
2023-04-08T16:36:33.585Z,102414.47
2023-04-08T16:39:36.527Z,102411.75
2023-04-08T16:42:39.272Z,102425.06
2023-04-08T16:45:43.458Z,102420.63
2023-04-08T16:48:46.458Z,102430.38
2023-04-08T16:51:49.466Z,102425.94
2023-04-08T16:54:52.383Z,102433.06
2023-04-08T16:57:55.419Z,102429.50
2023-04-08T17:00:59.550Z,102436.59
2023-04-08T17:04:02.447Z,102442.81
2023-04-08T17:07:05.227Z,102444.59
2023-04-08T17:10:09.098Z,102448.13
2023-04-08T17:13:14.687Z,102446.34
2023-04-08T17:16:19.508Z,102457.91
2023-04-08T17:19:22.282Z,102465.00
2023-04-08T17:22:25.077Z,102467.66
2023-04-08T17:25:27.820Z,102476.53
2023-04-08T17:28:30.583Z,102486.31
2023-04-08T17:31:34.749Z,102482.75
2023-04-08T17:34:37.999Z,102487.22
2023-04-08T17:37:40.945Z,102487.22
2023-04-08T17:40:43.738Z,102490.75
2023-04-08T17:43:46.596Z,102495.19
2023-04-08T17:46:50.732Z,102497.84
2023-04-08T17:49:56.054Z,102520.03
2023-04-08T17:52:58.841Z,102520.91
2023-04-08T17:56:01.873Z,102537.78
2023-04-08T17:59:04.664Z,102532.47
2023-04-08T18:02:08.921Z,102544.94
2023-04-08T18:05:12.597Z,102547.59
2023-04-08T18:08:15.401Z,102554.66
2023-04-08T18:11:18.262Z,102563.56
2023-04-08T18:14:21.045Z,102573.28
2023-04-08T18:17:25.240Z,102579.50
2023-04-08T18:20:28.714Z,102569.69
2023-04-08T18:23:31.512Z,102581.19
2023-04-08T18:26:34.275Z,102591.84
2023-04-08T18:29:37.068Z,102598.94
2023-04-08T18:32:41.203Z,102597.16
2023-04-08T18:35:44.293Z,102606.03
2023-04-08T18:38:48.603Z,102606.97
2023-04-08T18:41:51.341Z,102616.78
2023-04-08T18:44:54.060Z,102616.78
2023-04-08T18:47:58.615Z,102623.00
2023-04-08T18:51:02.029Z,102633.66
2023-04-08T18:54:04.957Z,102631.03
2023-04-08T18:57:07.906Z,102633.66
2023-04-08T19:00:11.380Z,102638.97
2023-04-08T19:03:15.744Z,102639.00
2023-04-08T19:06:22.378Z,102637.19
2023-04-08T19:09:25.136Z,102642.53
2023-04-08T19:12:29.485Z,102639.84
2023-04-08T19:15:32.228Z,102638.97
2023-04-08T19:18:36.400Z,102643.41
2023-04-08T19:21:39.177Z,102641.66
2023-04-08T19:24:41.983Z,102635.47
2023-04-08T19:27:45.939Z,102642.53
2023-04-08T19:30:50.558Z,102633.69
2023-04-08T19:33:55.280Z,102633.69
2023-04-08T19:36:58.118Z,102636.34
2023-04-08T19:40:01.087Z,102638.13
2023-04-08T19:43:03.858Z,102638.13
2023-04-08T19:46:06.793Z,102641.66
2023-04-08T19:49:10.973Z,102644.34
2023-04-08T19:52:13.752Z,102649.66
2023-04-08T19:55:16.918Z,102645.19
2023-04-08T19:58:19.731Z,102646.09
2023-04-08T20:01:22.589Z,102647.00
2023-04-08T20:04:26.909Z,102649.63
2023-04-08T20:07:29.792Z,102657.63
2023-04-08T20:10:32.553Z,102646.09
2023-04-08T20:13:35.289Z,102651.44
2023-04-08T20:16:38.072Z,102651.44
2023-04-08T20:19:42.235Z,102654.09
2023-04-08T20:22:46.381Z,102652.31
2023-04-08T20:25:49.367Z,102654.06
2023-04-08T20:28:52.288Z,102651.41
2023-04-08T20:31:55.482Z,102657.56
2023-04-08T20:35:00.686Z,102654.94
2023-04-08T20:38:03.457Z,102659.38
2023-04-08T20:41:06.480Z,102659.38
2023-04-08T20:44:10.535Z,102647.88
2023-04-08T20:47:14.175Z,102658.50
2023-04-08T20:50:18.407Z,102654.09
2023-04-08T20:53:23.619Z,102655.00
2023-04-08T20:56:27.533Z,102656.75
2023-04-08T20:59:30.337Z,102650.59
2023-04-08T21:02:33.679Z,102655.00
2023-04-08T21:05:39.257Z,102656.75
2023-04-08T21:08:42.035Z,102660.28
2023-04-08T21:11:45.050Z,102659.38
2023-04-08T21:14:47.852Z,102654.06
2023-04-08T21:17:50.743Z,102654.06
2023-04-08T21:20:55.059Z,102653.13
2023-04-08T21:23:57.863Z,102651.41
2023-04-08T21:27:01.309Z,102659.34
2023-04-08T21:30:04.746Z,102661.97
2023-04-08T21:33:07.901Z,102665.56
2023-04-08T21:36:12.156Z,102667.34
2023-04-08T21:39:17.505Z,102665.59
2023-04-08T21:42:22.746Z,102664.63
2023-04-08T21:45:25.933Z,102657.56
2023-04-08T21:48:28.757Z,102665.59
2023-04-08T21:51:32.929Z,102662.94
2023-04-08T21:54:35.755Z,102662.91
2023-04-08T21:57:39.287Z,102668.22
2023-04-08T22:00:42.048Z,102664.72
2023-04-08T22:03:44.913Z,102665.56
2023-04-08T22:06:49.783Z,102668.22
2023-04-08T22:09:54.480Z,102662.03
2023-04-08T22:12:57.396Z,102657.66
2023-04-08T22:16:00.154Z,102660.28
2023-04-08T22:19:02.937Z,102656.72
2023-04-08T22:22:07.094Z,102648.72
2023-04-08T22:25:10.567Z,102652.31
2023-04-08T22:28:13.376Z,102651.47
2023-04-08T22:31:16.296Z,102640.84
2023-04-08T22:34:19.185Z,102647.00
2023-04-08T22:37:23.334Z,102647.84
2023-04-08T22:40:26.158Z,102647.00
2023-04-08T22:43:28.990Z,102644.34
2023-04-08T22:46:32.038Z,102639.94
2023-04-08T22:49:35.483Z,102644.34
2023-04-08T22:52:39.737Z,102642.63
2023-04-08T22:55:42.505Z,102629.31
2023-04-08T22:58:45.376Z,102635.56
2023-04-08T23:01:48.259Z,102647.06
2023-04-08T23:04:54.686Z,102641.78
2023-04-08T23:07:58.826Z,102644.44
2023-04-08T23:11:01.637Z,102648.94
2023-04-08T23:14:04.450Z,102643.53
2023-04-08T23:17:07.212Z,102641.75
2023-04-08T23:20:10.576Z,102644.41
2023-04-08T23:23:14.640Z,102644.41
2023-04-08T23:26:20.889Z,102633.75
2023-04-08T23:29:23.712Z,102637.38
2023-04-08T23:32:27.475Z,102638.28
2023-04-08T23:35:30.584Z,102640.94
2023-04-08T23:38:34.862Z,102632.94
2023-04-08T23:41:37.624Z,102638.31
2023-04-08T23:44:40.429Z,102639.19
2023-04-08T23:47:43.248Z,102646.25
2023-04-08T23:50:46.066Z,102644.44
2023-04-08T23:53:51.742Z,102639.13
2023-04-08T23:56:54.469Z,102632.91
2023-04-08T23:59:58.605Z,102640.94
